sensor_id;sensor_type;location;lat;lon;timestamp;P1;durP1;ratioP1;P2;durP2;ratioP2
15383;SDS011;7790;53.022;12.968;2023-02-01T00:03:34;2.33;;;1.17;;
15383;SDS011;7790;53.022;12.968;2023-02-01T00:07:36;1.27;;;0.80;;
15383;SDS011;7790;53.022;12.968;2023-02-01T00:11:37;2.40;;;1.07;;
15383;SDS011;7790;53.022;12.968;2023-02-01T00:15:39;2.63;;;1.27;;
15383;SDS011;7790;53.022;12.968;2023-02-01T00:19:40;1.07;;;0.80;;
15383;SDS011;7790;53.022;12.968;2023-02-01T00:23:41;2.47;;;1.23;;
15383;SDS011;7790;53.022;12.968;2023-02-01T00:27:43;2.20;;;1.00;;
15383;SDS011;7790;53.022;12.968;2023-02-01T00:31:44;1.40;;;0.80;;
15383;SDS011;7790;53.022;12.968;2023-02-01T00:35:45;2.67;;;1.20;;
15383;SDS011;7790;53.022;12.968;2023-02-01T00:39:47;1.33;;;1.00;;
15383;SDS011;7790;53.022;12.968;2023-02-01T00:43:48;2.03;;;0.97;;
15383;SDS011;7790;53.022;12.968;2023-02-01T00:47:50;2.63;;;1.27;;
15383;SDS011;7790;53.022;12.968;2023-02-01T00:51:51;2.90;;;1.00;;
15383;SDS011;7790;53.022;12.968;2023-02-01T00:55:52;1.37;;;0.97;;
15383;SDS011;7790;53.022;12.968;2023-02-01T00:59:54;2.47;;;0.90;;
15383;SDS011;7790;53.022;12.968;2023-02-01T01:03:56;0.97;;;0.73;;
15383;SDS011;7790;53.022;12.968;2023-02-01T01:07:57;2.53;;;0.83;;
15383;SDS011;7790;53.022;12.968;2023-02-01T01:11:59;1.30;;;0.87;;
15383;SDS011;7790;53.022;12.968;2023-02-01T01:16:05;2.03;;;1.23;;
15383;SDS011;7790;53.022;12.968;2023-02-01T01:20:07;3.13;;;1.20;;
15383;SDS011;7790;53.022;12.968;2023-02-01T01:24:08;1.70;;;1.07;;
15383;SDS011;7790;53.022;12.968;2023-02-01T01:28:09;1.73;;;0.90;;
15383;SDS011;7790;53.022;12.968;2023-02-01T01:32:10;2.50;;;1.00;;
15383;SDS011;7790;53.022;12.968;2023-02-01T01:36:12;1.50;;;1.10;;
15383;SDS011;7790;53.022;12.968;2023-02-01T01:40:13;1.63;;;0.90;;
15383;SDS011;7790;53.022;12.968;2023-02-01T01:48:36;1.07;;;0.80;;
15383;SDS011;7790;53.022;12.968;2023-02-01T01:52:38;1.50;;;1.00;;
15383;SDS011;7790;53.022;12.968;2023-02-01T01:56:40;1.50;;;0.90;;
15383;SDS011;7790;53.022;12.968;2023-02-01T02:00:42;1.07;;;0.83;;
15383;SDS011;7790;53.022;12.968;2023-02-01T02:04:44;1.60;;;1.00;;
15383;SDS011;7790;53.022;12.968;2023-02-01T02:08:46;3.03;;;1.00;;
15383;SDS011;7790;53.022;12.968;2023-02-01T02:12:48;1.77;;;0.93;;
15383;SDS011;7790;53.022;12.968;2023-02-01T02:16:57;2.90;;;1.30;;
15383;SDS011;7790;53.022;12.968;2023-02-01T02:21:23;1.53;;;0.90;;
15383;SDS011;7790;53.022;12.968;2023-02-01T02:29:49;1.37;;;0.80;;
15383;SDS011;7790;53.022;12.968;2023-02-01T02:33:59;1.30;;;1.07;;
15383;SDS011;7790;53.022;12.968;2023-02-01T02:38:12;1.80;;;1.00;;
15383;SDS011;7790;53.022;12.968;2023-02-01T02:46:44;1.90;;;0.97;;
15383;SDS011;7790;53.022;12.968;2023-02-01T02:51:14;1.27;;;0.80;;
15383;SDS011;7790;53.022;12.968;2023-02-01T02:55:35;1.50;;;1.00;;
15383;SDS011;7790;53.022;12.968;2023-02-01T02:59:38;1.00;;;0.90;;
15383;SDS011;7790;53.022;12.968;2023-02-01T03:03:59;2.17;;;1.00;;
15383;SDS011;7790;53.022;12.968;2023-02-01T03:08:12;0.80;;;0.77;;
15383;SDS011;7790;53.022;12.968;2023-02-01T03:12:13;1.07;;;0.90;;
15383;SDS011;7790;53.022;12.968;2023-02-01T03:16:36;1.13;;;0.80;;
15383;SDS011;7790;53.022;12.968;2023-02-01T03:20:43;2.70;;;0.83;;
15383;SDS011;7790;53.022;12.968;2023-02-01T03:24:45;1.27;;;0.90;;
15383;SDS011;7790;53.022;12.968;2023-02-01T03:28:49;1.73;;;1.10;;
15383;SDS011;7790;53.022;12.968;2023-02-01T03:32:54;1.43;;;0.97;;
15383;SDS011;7790;53.022;12.968;2023-02-01T03:37:05;1.33;;;1.00;;
15383;SDS011;7790;53.022;12.968;2023-02-01T03:41:12;1.57;;;0.90;;
15383;SDS011;7790;53.022;12.968;2023-02-01T03:45:24;1.67;;;1.07;;
15383;SDS011;7790;53.022;12.968;2023-02-01T03:53:31;2.93;;;1.10;;
15383;SDS011;7790;53.022;12.968;2023-02-01T03:57:35;1.10;;;0.70;;
15383;SDS011;7790;53.022;12.968;2023-02-01T04:01:38;1.20;;;1.00;;
15383;SDS011;7790;53.022;12.968;2023-02-01T04:05:39;2.80;;;1.00;;
15383;SDS011;7790;53.022;12.968;2023-02-01T04:09:42;1.73;;;1.07;;
15383;SDS011;7790;53.022;12.968;2023-02-01T04:13:44;1.37;;;1.00;;
15383;SDS011;7790;53.022;12.968;2023-02-01T04:17:45;0.93;;;0.67;;
15383;SDS011;7790;53.022;12.968;2023-02-01T04:21:46;1.67;;;1.10;;
15383;SDS011;7790;53.022;12.968;2023-02-01T04:25:48;1.40;;;0.80;;
15383;SDS011;7790;53.022;12.968;2023-02-01T04:29:49;2.50;;;1.23;;
15383;SDS011;7790;53.022;12.968;2023-02-01T04:33:54;2.40;;;1.20;;
15383;SDS011;7790;53.022;12.968;2023-02-01T04:37:57;3.07;;;1.23;;
15383;SDS011;7790;53.022;12.968;2023-02-01T04:41:58;1.90;;;1.20;;
15383;SDS011;7790;53.022;12.968;2023-02-01T04:46:00;1.17;;;1.03;;
15383;SDS011;7790;53.022;12.968;2023-02-01T04:50:01;1.70;;;1.10;;
15383;SDS011;7790;53.022;12.968;2023-02-01T04:54:02;2.33;;;1.27;;
15383;SDS011;7790;53.022;12.968;2023-02-01T04:58:04;1.67;;;1.13;;
15383;SDS011;7790;53.022;12.968;2023-02-01T05:02:05;3.30;;;1.10;;
15383;SDS011;7790;53.022;12.968;2023-02-01T05:06:06;1.77;;;1.00;;
15383;SDS011;7790;53.022;12.968;2023-02-01T05:10:08;1.20;;;1.10;;
15383;SDS011;7790;53.022;12.968;2023-02-01T05:14:09;2.10;;;1.17;;
15383;SDS011;7790;53.022;12.968;2023-02-01T05:18:10;2.10;;;1.17;;
15383;SDS011;7790;53.022;12.968;2023-02-01T05:22:11;1.87;;;1.20;;
15383;SDS011;7790;53.022;12.968;2023-02-01T05:26:13;1.77;;;1.13;;
15383;SDS011;7790;53.022;12.968;2023-02-01T05:30:14;2.80;;;1.13;;
15383;SDS011;7790;53.022;12.968;2023-02-01T05:34:16;1.80;;;1.07;;
15383;SDS011;7790;53.022;12.968;2023-02-01T05:38:17;2.33;;;1.40;;
15383;SDS011;7790;53.022;12.968;2023-02-01T05:42:18;3.33;;;1.30;;
15383;SDS011;7790;53.022;12.968;2023-02-01T05:46:20;1.90;;;1.10;;
15383;SDS011;7790;53.022;12.968;2023-02-01T05:50:21;1.20;;;1.10;;
15383;SDS011;7790;53.022;12.968;2023-02-01T05:54:30;1.93;;;1.30;;
15383;SDS011;7790;53.022;12.968;2023-02-01T05:58:31;2.40;;;1.33;;
15383;SDS011;7790;53.022;12.968;2023-02-01T06:02:34;1.60;;;1.10;;
15383;SDS011;7790;53.022;12.968;2023-02-01T06:06:35;1.77;;;1.20;;
15383;SDS011;7790;53.022;12.968;2023-02-01T06:10:37;1.87;;;1.40;;
15383;SDS011;7790;53.022;12.968;2023-02-01T06:14:38;2.37;;;1.20;;
15383;SDS011;7790;53.022;12.968;2023-02-01T06:18:39;2.37;;;1.20;;
15383;SDS011;7790;53.022;12.968;2023-02-01T06:22:41;2.37;;;1.37;;
15383;SDS011;7790;53.022;12.968;2023-02-01T06:26:42;3.00;;;1.53;;
15383;SDS011;7790;53.022;12.968;2023-02-01T06:30:44;2.33;;;1.40;;
15383;SDS011;7790;53.022;12.968;2023-02-01T06:34:50;1.73;;;1.27;;
15383;SDS011;7790;53.022;12.968;2023-02-01T06:38:52;2.10;;;1.30;;
15383;SDS011;7790;53.022;12.968;2023-02-01T06:42:54;2.00;;;1.00;;
15383;SDS011;7790;53.022;12.968;2023-02-01T06:46:55;1.50;;;1.00;;
15383;SDS011;7790;53.022;12.968;2023-02-01T06:50:56;1.57;;;1.10;;
15383;SDS011;7790;53.022;12.968;2023-02-01T06:54:58;1.83;;;1.10;;
15383;SDS011;7790;53.022;12.968;2023-02-01T06:58:59;1.97;;;1.10;;
15383;SDS011;7790;53.022;12.968;2023-02-01T07:03:00;1.13;;;0.83;;
15383;SDS011;7790;53.022;12.968;2023-02-01T07:07:02;1.57;;;0.77;;
15383;SDS011;7790;53.022;12.968;2023-02-01T07:11:04;1.80;;;1.20;;
15383;SDS011;7790;53.022;12.968;2023-02-01T07:15:06;2.40;;;1.13;;
15383;SDS011;7790;53.022;12.968;2023-02-01T07:19:07;1.80;;;1.20;;
15383;SDS011;7790;53.022;12.968;2023-02-01T07:23:09;1.70;;;1.10;;
15383;SDS011;7790;53.022;12.968;2023-02-01T07:27:11;1.10;;;0.90;;
15383;SDS011;7790;53.022;12.968;2023-02-01T07:31:13;2.97;;;1.10;;
15383;SDS011;7790;53.022;12.968;2023-02-01T07:35:19;1.27;;;0.90;;
15383;SDS011;7790;53.022;12.968;2023-02-01T07:39:20;2.03;;;1.17;;
15383;SDS011;7790;53.022;12.968;2023-02-01T07:43:21;1.93;;;1.13;;
15383;SDS011;7790;53.022;12.968;2023-02-01T07:47:23;3.00;;;1.30;;
15383;SDS011;7790;53.022;12.968;2023-02-01T07:51:24;11.10;;;2.10;;
15383;SDS011;7790;53.022;12.968;2023-02-01T07:55:25;7.00;;;1.60;;
15383;SDS011;7790;53.022;12.968;2023-02-01T07:59:27;10.23;;;1.23;;
15383;SDS011;7790;53.022;12.968;2023-02-01T08:03:28;6.67;;;1.50;;
15383;SDS011;7790;53.022;12.968;2023-02-01T08:07:29;3.83;;;1.40;;
15383;SDS011;7790;53.022;12.968;2023-02-01T08:11:31;5.57;;;1.33;;
15383;SDS011;7790;53.022;12.968;2023-02-01T08:15:32;5.63;;;1.50;;
15383;SDS011;7790;53.022;12.968;2023-02-01T08:19:33;5.03;;;1.70;;
15383;SDS011;7790;53.022;12.968;2023-02-01T08:23:35;5.77;;;2.20;;
15383;SDS011;7790;53.022;12.968;2023-02-01T08:27:36;5.33;;;1.70;;
15383;SDS011;7790;53.022;12.968;2023-02-01T08:31:38;5.07;;;2.00;;
15383;SDS011;7790;53.022;12.968;2023-02-01T08:35:43;3.17;;;1.57;;
15383;SDS011;7790;53.022;12.968;2023-02-01T08:39:44;3.63;;;1.60;;
15383;SDS011;7790;53.022;12.968;2023-02-01T08:43:47;4.10;;;1.50;;
15383;SDS011;7790;53.022;12.968;2023-02-01T08:47:48;3.57;;;1.57;;
15383;SDS011;7790;53.022;12.968;2023-02-01T08:51:49;2.90;;;1.70;;
15383;SDS011;7790;53.022;12.968;2023-02-01T08:55:51;4.57;;;1.80;;
15383;SDS011;7790;53.022;12.968;2023-02-01T08:59:52;3.07;;;1.83;;
15383;SDS011;7790;53.022;12.968;2023-02-01T09:03:53;7.40;;;2.27;;
15383;SDS011;7790;53.022;12.968;2023-02-01T09:07:55;3.80;;;1.90;;
15383;SDS011;7790;53.022;12.968;2023-02-01T09:11:56;4.77;;;1.83;;
15383;SDS011;7790;53.022;12.968;2023-02-01T09:15:57;9.83;;;2.10;;
15383;SDS011;7790;53.022;12.968;2023-02-01T09:20:00;5.70;;;1.70;;
15383;SDS011;7790;53.022;12.968;2023-02-01T09:24:01;5.73;;;1.60;;
15383;SDS011;7790;53.022;12.968;2023-02-01T09:28:04;3.43;;;2.20;;
15383;SDS011;7790;53.022;12.968;2023-02-01T09:32:06;4.70;;;1.80;;
15383;SDS011;7790;53.022;12.968;2023-02-01T09:36:07;5.33;;;1.70;;
15383;SDS011;7790;53.022;12.968;2023-02-01T09:40:12;2.13;;;1.50;;
15383;SDS011;7790;53.022;12.968;2023-02-01T09:48:20;2.87;;;1.53;;
15383;SDS011;7790;53.022;12.968;2023-02-01T09:52:25;2.27;;;1.50;;
15383;SDS011;7790;53.022;12.968;2023-02-01T09:56:29;2.63;;;1.40;;
15383;SDS011;7790;53.022;12.968;2023-02-01T10:00:37;3.30;;;1.30;;
15383;SDS011;7790;53.022;12.968;2023-02-01T10:04:39;3.10;;;1.20;;
15383;SDS011;7790;53.022;12.968;2023-02-01T10:21:47;2.70;;;1.20;;
15383;SDS011;7790;53.022;12.968;2023-02-01T10:29:58;2.70;;;1.40;;
15383;SDS011;7790;53.022;12.968;2023-02-01T10:34:00;3.10;;;1.27;;
15383;SDS011;7790;53.022;12.968;2023-02-01T10:38:02;8.77;;;1.67;;
15383;SDS011;7790;53.022;12.968;2023-02-01T10:42:09;5.07;;;1.83;;
15383;SDS011;7790;53.022;12.968;2023-02-01T10:46:11;5.80;;;1.30;;
15383;SDS011;7790;53.022;12.968;2023-02-01T10:50:29;3.00;;;1.70;;
15383;SDS011;7790;53.022;12.968;2023-02-01T10:54:35;4.30;;;1.50;;
15383;SDS011;7790;53.022;12.968;2023-02-01T10:58:45;3.90;;;1.50;;
15383;SDS011;7790;53.022;12.968;2023-02-01T11:02:47;4.07;;;1.63;;
15383;SDS011;7790;53.022;12.968;2023-02-01T11:06:54;7.20;;;1.93;;
15383;SDS011;7790;53.022;12.968;2023-02-01T11:11:07;4.33;;;1.93;;
15383;SDS011;7790;53.022;12.968;2023-02-01T11:19:13;8.23;;;2.43;;
15383;SDS011;7790;53.022;12.968;2023-02-01T11:23:16;7.17;;;1.97;;
15383;SDS011;7790;53.022;12.968;2023-02-01T11:27:19;6.67;;;2.27;;
15383;SDS011;7790;53.022;12.968;2023-02-01T11:31:21;9.37;;;2.50;;
15383;SDS011;7790;53.022;12.968;2023-02-01T11:35:23;16.37;;;2.53;;
15383;SDS011;7790;53.022;12.968;2023-02-01T11:39:25;10.27;;;2.90;;
15383;SDS011;7790;53.022;12.968;2023-02-01T11:43:27;19.80;;;3.10;;
15383;SDS011;7790;53.022;12.968;2023-02-01T11:47:30;16.37;;;2.70;;
15383;SDS011;7790;53.022;12.968;2023-02-01T11:55:42;9.30;;;2.30;;
15383;SDS011;7790;53.022;12.968;2023-02-01T12:08:38;12.57;;;6.10;;
15383;SDS011;7790;53.022;12.968;2023-02-01T12:46:04;48.83;;;41.00;;
15383;SDS011;7790;53.022;12.968;2023-02-01T12:58:30;44.27;;;32.10;;
15383;SDS011;7790;53.022;12.968;2023-02-01T13:02:35;40.20;;;29.10;;
15383;SDS011;7790;53.022;12.968;2023-02-01T13:06:45;37.63;;;26.50;;
15383;SDS011;7790;53.022;12.968;2023-02-01T13:10:49;36.83;;;25.20;;
15383;SDS011;7790;53.022;12.968;2023-02-01T13:14:53;37.90;;;23.77;;
15383;SDS011;7790;53.022;12.968;2023-02-01T13:19:10;36.87;;;23.30;;
15383;SDS011;7790;53.022;12.968;2023-02-01T13:27:28;27.43;;;19.43;;
15383;SDS011;7790;53.022;12.968;2023-02-01T13:44:28;20.77;;;14.10;;
15383;SDS011;7790;53.022;12.968;2023-02-01T13:48:33;19.80;;;13.23;;
15383;SDS011;7790;53.022;12.968;2023-02-01T13:52:37;20.90;;;12.47;;
15383;SDS011;7790;53.022;12.968;2023-02-01T13:56:41;20.00;;;12.20;;
15383;SDS011;7790;53.022;12.968;2023-02-01T14:00:43;18.87;;;11.10;;
15383;SDS011;7790;53.022;12.968;2023-02-01T14:04:46;17.80;;;10.60;;
15383;SDS011;7790;53.022;12.968;2023-02-01T14:09:12;15.53;;;9.23;;
15383;SDS011;7790;53.022;12.968;2023-02-01T14:17:29;12.20;;;8.10;;
15383;SDS011;7790;53.022;12.968;2023-02-01T14:21:32;13.00;;;7.87;;
15383;SDS011;7790;53.022;12.968;2023-02-01T14:25:33;10.93;;;7.50;;
15383;SDS011;7790;53.022;12.968;2023-02-01T14:29:36;10.97;;;7.40;;
15383;SDS011;7790;53.022;12.968;2023-02-01T14:33:40;11.50;;;6.43;;
15383;SDS011;7790;53.022;12.968;2023-02-01T14:37:44;8.90;;;6.20;;
15383;SDS011;7790;53.022;12.968;2023-02-01T14:41:46;11.20;;;6.10;;
15383;SDS011;7790;53.022;12.968;2023-02-01T14:45:48;8.47;;;5.57;;
15383;SDS011;7790;53.022;12.968;2023-02-01T14:49:55;9.33;;;5.50;;
15383;SDS011;7790;53.022;12.968;2023-02-01T14:53:57;7.43;;;4.90;;
15383;SDS011;7790;53.022;12.968;2023-02-01T14:57:59;8.23;;;5.03;;
15383;SDS011;7790;53.022;12.968;2023-02-01T15:02:01;5.57;;;4.20;;
15383;SDS011;7790;53.022;12.968;2023-02-01T15:06:16;7.50;;;4.63;;
15383;SDS011;7790;53.022;12.968;2023-02-01T15:10:19;6.47;;;4.00;;
15383;SDS011;7790;53.022;12.968;2023-02-01T15:14:22;5.33;;;3.70;;
15383;SDS011;7790;53.022;12.968;2023-02-01T15:18:24;6.17;;;3.77;;
15383;SDS011;7790;53.022;12.968;2023-02-01T15:22:26;5.17;;;3.30;;
15383;SDS011;7790;53.022;12.968;2023-02-01T15:26:28;4.37;;;2.97;;
15383;SDS011;7790;53.022;12.968;2023-02-01T15:30:31;4.93;;;3.47;;
15383;SDS011;7790;53.022;12.968;2023-02-01T15:34:54;5.57;;;2.80;;
15383;SDS011;7790;53.022;12.968;2023-02-01T15:43:18;4.73;;;3.07;;
15383;SDS011;7790;53.022;12.968;2023-02-01T15:47:24;4.07;;;2.50;;
15383;SDS011;7790;53.022;12.968;2023-02-01T15:51:27;4.30;;;2.40;;
15383;SDS011;7790;53.022;12.968;2023-02-01T15:55:33;4.23;;;3.00;;
15383;SDS011;7790;53.022;12.968;2023-02-01T15:59:37;3.47;;;2.60;;
15383;SDS011;7790;53.022;12.968;2023-02-01T16:03:43;3.10;;;2.47;;
15383;SDS011;7790;53.022;12.968;2023-02-01T16:07:53;5.33;;;2.30;;
15383;SDS011;7790;53.022;12.968;2023-02-01T16:11:57;3.13;;;1.90;;
15383;SDS011;7790;53.022;12.968;2023-02-01T16:15:59;3.20;;;2.10;;
15383;SDS011;7790;53.022;12.968;2023-02-01T16:20:00;6.17;;;2.30;;
15383;SDS011;7790;53.022;12.968;2023-02-01T16:24:01;4.77;;;2.20;;
15383;SDS011;7790;53.022;12.968;2023-02-01T16:28:04;4.17;;;2.07;;
15383;SDS011;7790;53.022;12.968;2023-02-01T16:32:05;2.90;;;2.00;;
15383;SDS011;7790;53.022;12.968;2023-02-01T16:36:07;3.93;;;1.97;;
15383;SDS011;7790;53.022;12.968;2023-02-01T16:40:12;2.73;;;1.70;;
15383;SDS011;7790;53.022;12.968;2023-02-01T16:44:14;1.87;;;1.67;;
15383;SDS011;7790;53.022;12.968;2023-02-01T16:48:25;2.60;;;1.53;;
15383;SDS011;7790;53.022;12.968;2023-02-01T16:52:27;1.80;;;1.70;;
15383;SDS011;7790;53.022;12.968;2023-02-01T16:56:29;3.23;;;1.77;;
15383;SDS011;7790;53.022;12.968;2023-02-01T17:00:30;1.53;;;1.30;;
15383;SDS011;7790;53.022;12.968;2023-02-01T17:04:36;8.93;;;1.93;;
15383;SDS011;7790;53.022;12.968;2023-02-01T17:08:39;2.83;;;1.50;;
15383;SDS011;7790;53.022;12.968;2023-02-01T17:12:41;4.27;;;1.77;;
15383;SDS011;7790;53.022;12.968;2023-02-01T17:16:43;4.37;;;1.40;;
15383;SDS011;7790;53.022;12.968;2023-02-01T17:20:45;3.47;;;1.40;;
15383;SDS011;7790;53.022;12.968;2023-02-01T17:24:47;2.83;;;1.30;;
15383;SDS011;7790;53.022;12.968;2023-02-01T17:28:49;1.70;;;1.10;;
15383;SDS011;7790;53.022;12.968;2023-02-01T17:32:51;1.73;;;1.20;;
15383;SDS011;7790;53.022;12.968;2023-02-01T17:36:52;2.10;;;1.57;;
15383;SDS011;7790;53.022;12.968;2023-02-01T17:40:53;2.90;;;1.33;;
15383;SDS011;7790;53.022;12.968;2023-02-01T17:44:56;3.13;;;1.47;;
15383;SDS011;7790;53.022;12.968;2023-02-01T17:48:58;1.80;;;1.30;;
15383;SDS011;7790;53.022;12.968;2023-02-01T17:53:00;2.43;;;1.47;;
15383;SDS011;7790;53.022;12.968;2023-02-01T17:57:04;1.13;;;1.00;;
15383;SDS011;7790;53.022;12.968;2023-02-01T18:01:10;1.73;;;1.20;;
15383;SDS011;7790;53.022;12.968;2023-02-01T18:05:16;1.70;;;1.20;;
15383;SDS011;7790;53.022;12.968;2023-02-01T18:09:18;1.53;;;1.10;;
15383;SDS011;7790;53.022;12.968;2023-02-01T18:13:20;1.43;;;1.10;;
15383;SDS011;7790;53.022;12.968;2023-02-01T18:17:21;1.40;;;0.97;;
15383;SDS011;7790;53.022;12.968;2023-02-01T18:21:23;1.20;;;0.80;;
15383;SDS011;7790;53.022;12.968;2023-02-01T18:25:25;1.20;;;1.07;;
15383;SDS011;7790;53.022;12.968;2023-02-01T18:29:26;3.90;;;1.23;;
15383;SDS011;7790;53.022;12.968;2023-02-01T18:33:28;3.43;;;1.20;;
15383;SDS011;7790;53.022;12.968;2023-02-01T18:37:29;1.93;;;1.20;;
15383;SDS011;7790;53.022;12.968;2023-02-01T18:41:30;4.20;;;1.00;;
15383;SDS011;7790;53.022;12.968;2023-02-01T18:45:37;2.80;;;1.10;;
15383;SDS011;7790;53.022;12.968;2023-02-01T18:49:38;2.23;;;1.10;;
15383;SDS011;7790;53.022;12.968;2023-02-01T18:53:40;2.27;;;1.03;;
15383;SDS011;7790;53.022;12.968;2023-02-01T18:57:41;3.00;;;1.23;;
15383;SDS011;7790;53.022;12.968;2023-02-01T19:01:42;6.63;;;1.30;;
15383;SDS011;7790;53.022;12.968;2023-02-01T19:05:47;4.80;;;1.37;;
15383;SDS011;7790;53.022;12.968;2023-02-01T19:09:48;7.67;;;1.27;;
15383;SDS011;7790;53.022;12.968;2023-02-01T19:13:50;1.50;;;1.00;;
15383;SDS011;7790;53.022;12.968;2023-02-01T19:17:52;7.23;;;1.23;;
15383;SDS011;7790;53.022;12.968;2023-02-01T19:21:54;4.20;;;1.17;;
15383;SDS011;7790;53.022;12.968;2023-02-01T19:25:55;3.73;;;1.10;;
15383;SDS011;7790;53.022;12.968;2023-02-01T19:29:57;1.60;;;1.07;;
15383;SDS011;7790;53.022;12.968;2023-02-01T19:33:58;2.50;;;1.27;;
15383;SDS011;7790;53.022;12.968;2023-02-01T19:37:59;1.47;;;0.80;;
15383;SDS011;7790;53.022;12.968;2023-02-01T19:42:01;1.43;;;0.93;;
15383;SDS011;7790;53.022;12.968;2023-02-01T19:46:02;4.37;;;1.23;;
15383;SDS011;7790;53.022;12.968;2023-02-01T19:50:03;2.30;;;1.10;;
15383;SDS011;7790;53.022;12.968;2023-02-01T19:54:06;1.47;;;0.90;;
15383;SDS011;7790;53.022;12.968;2023-02-01T19:58:08;1.77;;;0.87;;
15383;SDS011;7790;53.022;12.968;2023-02-01T20:02:13;2.40;;;1.27;;
15383;SDS011;7790;53.022;12.968;2023-02-01T20:06:15;1.03;;;0.80;;
15383;SDS011;7790;53.022;12.968;2023-02-01T20:10:16;1.17;;;0.70;;
15383;SDS011;7790;53.022;12.968;2023-02-01T20:14:18;1.80;;;0.80;;
15383;SDS011;7790;53.022;12.968;2023-02-01T20:18:19;3.47;;;1.10;;
15383;SDS011;7790;53.022;12.968;2023-02-01T20:22:20;2.07;;;1.00;;
15383;SDS011;7790;53.022;12.968;2023-02-01T20:26:21;2.70;;;1.00;;
15383;SDS011;7790;53.022;12.968;2023-02-01T20:30:24;1.37;;;0.90;;
15383;SDS011;7790;53.022;12.968;2023-02-01T20:34:28;2.50;;;1.13;;
15383;SDS011;7790;53.022;12.968;2023-02-01T20:38:29;1.30;;;0.73;;
15383;SDS011;7790;53.022;12.968;2023-02-01T20:42:30;1.13;;;0.80;;
15383;SDS011;7790;53.022;12.968;2023-02-01T20:46:34;2.57;;;0.97;;
15383;SDS011;7790;53.022;12.968;2023-02-01T20:50:35;1.37;;;0.97;;
15383;SDS011;7790;53.022;12.968;2023-02-01T20:54:36;1.17;;;0.80;;
15383;SDS011;7790;53.022;12.968;2023-02-01T20:58:40;1.83;;;1.17;;
15383;SDS011;7790;53.022;12.968;2023-02-01T21:02:41;3.27;;;1.10;;
15383;SDS011;7790;53.022;12.968;2023-02-01T21:06:43;1.70;;;0.87;;
15383;SDS011;7790;53.022;12.968;2023-02-01T21:10:54;2.60;;;1.20;;
15383;SDS011;7790;53.022;12.968;2023-02-01T21:14:56;1.57;;;0.90;;
15383;SDS011;7790;53.022;12.968;2023-02-01T21:18:57;1.40;;;0.90;;
15383;SDS011;7790;53.022;12.968;2023-02-01T21:22:59;2.77;;;1.00;;
15383;SDS011;7790;53.022;12.968;2023-02-01T21:27:01;2.37;;;0.97;;
15383;SDS011;7790;53.022;12.968;2023-02-01T21:31:02;2.93;;;0.83;;
15383;SDS011;7790;53.022;12.968;2023-02-01T21:35:04;1.67;;;1.00;;
15383;SDS011;7790;53.022;12.968;2023-02-01T21:39:06;1.63;;;0.80;;
15383;SDS011;7790;53.022;12.968;2023-02-01T21:43:07;2.13;;;1.00;;
15383;SDS011;7790;53.022;12.968;2023-02-01T21:47:10;1.50;;;0.97;;
15383;SDS011;7790;53.022;12.968;2023-02-01T21:51:11;1.43;;;0.97;;
15383;SDS011;7790;53.022;12.968;2023-02-01T21:55:15;1.60;;;0.93;;
15383;SDS011;7790;53.022;12.968;2023-02-01T21:59:17;1.40;;;0.90;;
15383;SDS011;7790;53.022;12.968;2023-02-01T22:03:18;1.03;;;0.87;;
15383;SDS011;7790;53.022;12.968;2023-02-01T22:07:19;1.40;;;1.03;;
15383;SDS011;7790;53.022;12.968;2023-02-01T22:11:20;1.40;;;0.80;;
15383;SDS011;7790;53.022;12.968;2023-02-01T22:15:22;0.93;;;0.70;;
15383;SDS011;7790;53.022;12.968;2023-02-01T22:19:23;1.63;;;0.90;;
15383;SDS011;7790;53.022;12.968;2023-02-01T22:23:25;1.37;;;0.87;;
15383;SDS011;7790;53.022;12.968;2023-02-01T22:27:27;1.47;;;0.90;;
15383;SDS011;7790;53.022;12.968;2023-02-01T22:31:28;1.13;;;1.03;;
15383;SDS011;7790;53.022;12.968;2023-02-01T22:35:29;1.40;;;1.10;;
15383;SDS011;7790;53.022;12.968;2023-02-01T22:39:31;1.10;;;1.00;;
15383;SDS011;7790;53.022;12.968;2023-02-01T22:43:32;4.27;;;1.20;;
15383;SDS011;7790;53.022;12.968;2023-02-01T22:47:34;3.37;;;1.10;;
15383;SDS011;7790;53.022;12.968;2023-02-01T22:51:35;3.27;;;1.20;;
15383;SDS011;7790;53.022;12.968;2023-02-01T22:55:36;3.30;;;1.03;;
15383;SDS011;7790;53.022;12.968;2023-02-01T22:59:40;3.03;;;1.00;;
15383;SDS011;7790;53.022;12.968;2023-02-01T23:03:41;4.37;;;1.30;;
15383;SDS011;7790;53.022;12.968;2023-02-01T23:07:44;4.27;;;0.90;;
15383;SDS011;7790;53.022;12.968;2023-02-01T23:11:46;2.30;;;0.90;;
15383;SDS011;7790;53.022;12.968;2023-02-01T23:15:48;2.97;;;1.27;;
15383;SDS011;7790;53.022;12.968;2023-02-01T23:19:49;1.37;;;0.90;;
15383;SDS011;7790;53.022;12.968;2023-02-01T23:23:51;2.43;;;1.00;;
15383;SDS011;7790;53.022;12.968;2023-02-01T23:27:53;2.57;;;1.13;;
15383;SDS011;7790;53.022;12.968;2023-02-01T23:31:54;0.80;;;0.80;;
15383;SDS011;7790;53.022;12.968;2023-02-01T23:35:56;1.50;;;0.90;;
15383;SDS011;7790;53.022;12.968;2023-02-01T23:39:58;2.10;;;1.00;;
15383;SDS011;7790;53.022;12.968;2023-02-01T23:43:59;2.23;;;0.80;;
15383;SDS011;7790;53.022;12.968;2023-02-01T23:48:00;1.60;;;0.93;;
15383;SDS011;7790;53.022;12.968;2023-02-01T23:52:02;2.00;;;1.00;;
15383;SDS011;7790;53.022;12.968;2023-02-01T23:56:03;1.07;;;0.97;;
